Hesperides — EANN — position and weather

sailwx.info

Track history (hours):
 
Tides and Currents Weather Stations Pressure Air Temp Water Temp Dewpoint Dewpoint Depression Visibility Wind Speed Wind Dir Waves Ship Positions

Hesperides

Last reported at 2013-Nov-07 07:14 UTC. Time now 2014-Jul-31 19:45 UTC.
Position N 28°30' W 016°11'.
Warning: this ship's position is months out of date.

Length 122 m; draft 5.8 m.

Type: Tanker. MMSI: 224462000.

Date/timePositionNaut miles runAvg speedWind from/ knotsBaromVisibWave heightAir tempDewpointWater temp
2013-Nov-07 07:14N 28°30' W 016°11'0 0.0
2013-Nov-07 06:29N 28°30' W 016°11'0 0.0
2013-Nov-07 05:32N 28°30' W 016°11'0 0.0
2013-Nov-07 04:32N 28°30' W 016°11'0 0.0
2013-Nov-07 03:32N 28°30' W 016°11'0 0.1
2013-Nov-07 02:32N 28°30' W 016°11'0 0.0
2013-Nov-07 01:32N 28°30' W 016°11'0 0.0
2013-Nov-07 00:32N 28°30' W 016°11'0 0.0
2013-Nov-06 23:32N 28°30' W 016°11'0 0.0
2013-Nov-06 22:32N 28°30' W 016°11'0 0.0
2013-Nov-06 21:26N 28°30' W 016°11'0 0.0
2013-Nov-06 20:32N 28°30' W 016°11'0 0.0
2013-Nov-06 12:08N 28°30' W 016°11'0 0.0
2013-Nov-06 11:23N 28°30' W 016°11'0 0.0
2013-Nov-06 10:32N 28°30' W 016°11'0 0.0
2013-Nov-06 09:32N 28°30' W 016°11'0 0.0
2013-Nov-06 08:29N 28°30' W 016°11'0 0.0
2013-Nov-06 07:32N 28°30' W 016°11'0 0.0
2013-Nov-06 06:29N 28°30' W 016°11'0 0.0
2013-Nov-06 05:32N 28°30' W 016°11'0 0.0
2013-Nov-06 04:32N 28°30' W 016°11'0 0.0
2013-Nov-06 03:32N 28°30' W 016°11'0 0.0
2013-Nov-06 02:31N 28°30' W 016°11'0 0.0
2013-Nov-06 01:31N 28°30' W 016°11'0 0.0
2013-Nov-06 00:28N 28°30' W 016°11'2 1.7
2013-Nov-05 23:33N 28°28' W 016°12'6 6.3
2013-Nov-05 22:33N 28°23' W 016°08'30 9.9
2013-Nov-05 19:33N 27°57' W 015°52'1111.1
2013-Nov-05 18:34N 27°46' W 015°47'32 1.1
2013-Nov-04 14:14N 28°18' W 015°39'7 9.8
2013-Nov-04 13:33N 28°20' W 015°46'10 9.8
2013-Nov-04 12:33N 28°23' W 015°56'10 9.9
2013-Nov-04 11:33N 28°26' W 016°07'6 5.9
2013-Nov-04 10:29N 28°29' W 016°13'0 0.0
2013-Nov-04 09:32N 28°29' W 016°13'0 0.0
2013-Nov-03 16:33N 28°29' W 016°14'1 0.6
2013-Nov-03 15:34N 28°29' W 016°13'0 0.0
2013-Nov-03 14:34N 28°29' W 016°13'0 0.0
2013-Nov-03 13:34N 28°29' W 016°13'0 0.0
2013-Nov-03 12:33N 28°29' W 016°13'0 0.0
2013-Nov-03 11:33N 28°29' W 016°13'0 0.0
2013-Nov-03 10:33N 28°29' W 016°13'0 0.0
2013-Nov-03 09:34N 28°29' W 016°13'0 0.0
2013-Nov-03 08:33N 28°29' W 016°13'0 0.0
2013-Nov-03 07:34N 28°29' W 016°13'0 0.0
2013-Nov-03 06:33N 28°29' W 016°13'0 0.0
2013-Nov-03 05:33N 28°29' W 016°13'0 0.0
2013-Nov-03 04:33N 28°29' W 016°13'0 0.0
2013-Nov-03 03:33N 28°29' W 016°13'0 0.0
2013-Nov-03 02:34N 28°29' W 016°13'0 0.0
2013-Nov-03 01:34N 28°29' W 016°13'0 0.0
2013-Nov-03 00:34N 28°29' W 016°13'0 0.0
2013-Nov-02 23:34N 28°29' W 016°13'0 0.0
2013-Nov-02 22:33N 28°29' W 016°13'0 0.0
2013-Nov-02 21:33N 28°29' W 016°13'0 0.0
2013-Nov-02 20:33N 28°29' W 016°13'0 0.0
2013-Nov-02 19:33N 28°29' W 016°13'  
2013-Oct-28 07:33N 28°19' W 015°50'  
Track history (hours):
 
Tides and Currents Weather Stations Pressure Air Temp Water Temp Dewpoint Dewpoint Depression Visibility Wind Speed Wind Dir Waves Ship Positions

Hesperides

Last reported at 2013-Nov-07 07:14 UTC. Time now 2014-Jul-31 19:45 UTC.
Position N 28°30' W 016°11'.
Warning: this ship's position is months out of date.

Length 122 m; draft 5.8 m.

Type: Tanker. MMSI: 224462000.

Date/timePositionNaut miles runAvg speedWind from/ knotsBaromVisibWave heightAir tempDewpointWater temp
2013-Nov-07 07:14N 28°30' W 016°11'0 0.0
2013-Nov-07 06:29N 28°30' W 016°11'0 0.0
2013-Nov-07 05:32N 28°30' W 016°11'0 0.0
2013-Nov-07 04:32N 28°30' W 016°11'0 0.0
2013-Nov-07 03:32N 28°30' W 016°11'0 0.1
2013-Nov-07 02:32N 28°30' W 016°11'0 0.0
2013-Nov-07 01:32N 28°30' W 016°11'0 0.0
2013-Nov-07 00:32N 28°30' W 016°11'0 0.0
2013-Nov-06 23:32N 28°30' W 016°11'0 0.0
2013-Nov-06 22:32N 28°30' W 016°11'0 0.0
2013-Nov-06 21:26N 28°30' W 016°11'0 0.0
2013-Nov-06 20:32N 28°30' W 016°11'0 0.0
2013-Nov-06 12:08N 28°30' W 016°11'0 0.0
2013-Nov-06 11:23N 28°30' W 016°11'0 0.0
2013-Nov-06 10:32N 28°30' W 016°11'0 0.0
2013-Nov-06 09:32N 28°30' W 016°11'0 0.0
2013-Nov-06 08:29N 28°30' W 016°11'0 0.0
2013-Nov-06 07:32N 28°30' W 016°11'0 0.0
2013-Nov-06 06:29N 28°30' W 016°11'0 0.0
2013-Nov-06 05:32N 28°30' W 016°11'0 0.0
2013-Nov-06 04:32N 28°30' W 016°11'0 0.0
2013-Nov-06 03:32N 28°30' W 016°11'0 0.0
2013-Nov-06 02:31N 28°30' W 016°11'0 0.0
2013-Nov-06 01:31N 28°30' W 016°11'0 0.0
2013-Nov-06 00:28N 28°30' W 016°11'2 1.7
2013-Nov-05 23:33N 28°28' W 016°12'6 6.3
2013-Nov-05 22:33N 28°23' W 016°08'30 9.9
2013-Nov-05 19:33N 27°57' W 015°52'1111.1
2013-Nov-05 18:34N 27°46' W 015°47'32 1.1
2013-Nov-04 14:14N 28°18' W 015°39'7 9.8
2013-Nov-04 13:33N 28°20' W 015°46'10 9.8
2013-Nov-04 12:33N 28°23' W 015°56'10 9.9
2013-Nov-04 11:33N 28°26' W 016°07'6 5.9
2013-Nov-04 10:29N 28°29' W 016°13'0 0.0
2013-Nov-04 09:32N 28°29' W 016°13'0 0.0
2013-Nov-03 16:33N 28°29' W 016°14'1 0.6
2013-Nov-03 15:34N 28°29' W 016°13'0 0.0
2013-Nov-03 14:34N 28°29' W 016°13'0 0.0
2013-Nov-03 13:34N 28°29' W 016°13'0 0.0
2013-Nov-03 12:33N 28°29' W 016°13'0 0.0
2013-Nov-03 11:33N 28°29' W 016°13'0 0.0
2013-Nov-03 10:33N 28°29' W 016°13'0 0.0
2013-Nov-03 09:34N 28°29' W 016°13'0 0.0
2013-Nov-03 08:33N 28°29' W 016°13'0 0.0
2013-Nov-03 07:34N 28°29' W 016°13'0 0.0
2013-Nov-03 06:33N 28°29' W 016°13'0 0.0
2013-Nov-03 05:33N 28°29' W 016°13'0 0.0
2013-Nov-03 04:33N 28°29' W 016°13'0 0.0
2013-Nov-03 03:33N 28°29' W 016°13'0 0.0
2013-Nov-03 02:34N 28°29' W 016°13'0 0.0
2013-Nov-03 01:34N 28°29' W 016°13'0 0.0
2013-Nov-03 00:34N 28°29' W 016°13'0 0.0
2013-Nov-02 23:34N 28°29' W 016°13'0 0.0
2013-Nov-02 22:33N 28°29' W 016°13'0 0.0
2013-Nov-02 21:33N 28°29' W 016°13'0 0.0
2013-Nov-02 20:33N 28°29' W 016°13'0 0.0
2013-Nov-02 19:33N 28°29' W 016°13'  
2013-Oct-28 07:33N 28°19' W 015°50'  

Dump ship's entire track history